Time;durP1;ratioP1;P1;durP2;ratioP2;P2;SDS_P1;SDS_P2;PMS_P1;PMS_P2;Temp;Humidity;BMP_temperature;BMP_pressure;BME280_temperature;BME280_humidity;BME280_pressure;Samples;Min_cycle;Max_cycle;Signal;HPM_P1;HPM_P2
2023/07/28 00:01:25;;;;;;;1.92;0.70;;;;;;;15.06;62.32;100181.56;4950158;28;20043;-71
2023/07/28 00:03:50;;;;;;;2.83;1.10;;;;;;;15.02;62.20;100178.31;4937506;28;20045;-71
2023/07/28 00:06:16;;;;;;;3.42;1.48;;;;;;;14.96;62.93;100182.22;4949330;28;20038;-71
2023/07/28 00:08:42;;;;;;;4.07;1.27;;;;;;;15.09;62.35;100179.56;4949652;28;20077;-71
2023/07/28 00:11:12;;;;;;;5.85;1.73;;;;;;;15.06;62.39;100182.44;4970219;28;20057;-70
2023/07/28 00:13:38;;;;;;;3.78;1.80;;;;;;;15.11;62.65;100174.22;4965752;28;20098;-69
2023/07/28 00:16:04;;;;;;;5.47;2.05;;;;;;;15.15;62.03;100175.69;4947515;28;20588;-69
2023/07/28 00:18:30;;;;;;;12.93;3.35;;;;;;;15.08;62.77;100180.53;4946946;28;20696;-68
2023/07/28 00:20:55;;;;;;;7.82;3.03;;;;;;;14.92;63.26;100182.53;4947097;28;20043;-69
2023/07/28 00:23:21;;;;;;;7.75;3.50;;;;;;;15.00;62.86;100169.69;4949290;28;20106;-68
2023/07/28 00:25:46;;;;;;;9.13;3.50;;;;;;;15.02;62.78;100175.69;4927935;28;20469;-68
2023/07/28 00:28:12;;;;;;;8.25;3.72;;;;;;;15.06;62.67;100173.66;4943303;28;20045;-69
2023/07/28 00:30:37;;;;;;;13.80;4.50;;;;;;;14.65;64.25;100178.22;4960369;28;20090;-69
2023/07/28 00:33:03;;;;;;;9.55;3.83;;;;;;;14.97;63.08;100177.81;4971020;28;20116;-69
2023/07/28 00:35:30;;;;;;;8.55;4.25;;;;;;;14.90;63.03;100180.03;4968176;28;20133;-68
2023/07/28 00:37:55;;;;;;;14.30;3.95;;;;;;;15.02;62.47;100180.97;4965322;28;20864;-69
2023/07/28 00:40:22;;;;;;;7.35;3.80;;;;;;;15.23;62.29;100178.63;4967206;28;20420;-69
2023/07/28 00:42:49;;;;;;;9.45;4.13;;;;;;;15.23;62.32;100180.44;4965410;28;20046;-69
2023/07/28 00:45:14;;;;;;;10.02;4.35;;;;;;;15.13;62.59;100181.03;4968948;28;20085;-68
2023/07/28 00:47:40;;;;;;;16.60;5.57;;;;;;;14.83;63.81;100185.81;4967874;28;20125;-67
2023/07/28 00:50:09;;;;;;;14.30;5.80;;;;;;;15.15;62.68;100188.84;4971363;28;20054;-67
2023/07/28 00:52:35;;;;;;;15.75;4.88;;;;;;;15.18;62.60;100192.09;4946050;28;20521;-67
2023/07/28 00:55:01;;;;;;;14.95;4.18;;;;;;;15.13;62.68;100178.41;4951354;28;20553;-66
2023/07/28 00:57:27;;;;;;;13.57;4.75;;;;;;;15.22;62.18;100187.50;4965483;28;20485;-67
2023/07/28 00:59:53;;;;;;;7.13;4.32;;;;;;;15.33;61.86;100184.09;4946418;28;20054;-67
2023/07/28 01:02:22;;;;;;;10.68;4.50;;;;;;;15.16;62.33;100188.72;4946027;28;20210;-67
2023/07/28 01:04:48;;;;;;;8.75;4.15;;;;;;;15.17;62.43;100198.31;4958350;28;20042;-69
2023/07/28 01:07:20;;;;;;;8.23;3.88;;;;;;;15.12;62.53;100192.50;4967988;28;20113;-69
2023/07/28 01:10:08;;;;;;;7.05;4.22;;;;;;;15.03;62.71;100192.31;4955783;28;20094;-68
2023/07/28 01:12:34;;;;;;;7.97;3.60;;;;;;;15.28;61.86;100191.47;4944465;28;20365;-74
2023/07/28 01:14:59;;;;;;;6.00;3.58;;;;;;;15.30;61.97;100187.78;4959604;28;20579;-73
2023/07/28 01:17:25;;;;;;;12.80;4.15;;;;;;;15.29;61.84;100191.38;4964805;28;20046;-72
2023/07/28 01:19:51;;;;;;;11.20;4.22;;;;;;;15.15;62.36;100194.09;4940652;28;20118;-67
2023/07/28 01:22:36;;;;;;;11.18;4.18;;;;;;;15.33;61.67;100189.38;4948210;28;20093;-71
2023/07/28 01:25:30;;;;;;;11.68;3.50;;;;;;;15.40;61.58;100184.50;4950691;28;20125;-69
2023/07/28 01:27:57;;;;;;;5.70;3.25;;;;;;;15.45;61.39;100191.13;4935691;28;20667;-70
2023/07/28 01:30:25;;;;;;;12.95;4.43;;;;;;;15.37;61.45;100189.03;4959666;28;20126;-70
2023/07/28 01:32:54;;;;;;;7.40;3.78;;;;;;;15.43;61.49;100186.91;4980149;28;20052;-69
2023/07/28 01:35:19;;;;;;;10.75;4.30;;;;;;;15.36;61.45;100189.13;4951474;28;20051;-68
2023/07/28 01:37:50;;;;;;;10.00;4.03;;;;;;;15.31;61.48;100188.63;4943054;28;20042;-67
2023/07/28 01:40:18;;;;;;;6.35;3.15;;;;;;;15.27;62.00;100195.06;4953378;28;20050;-67
2023/07/28 01:42:44;;;;;;;9.43;3.53;;;;;;;15.40;61.17;100193.25;4949075;28;20038;-68
2023/07/28 01:45:09;;;;;;;9.13;4.03;;;;;;;15.45;61.22;100200.81;4953697;28;20043;-70
2023/07/28 01:47:35;;;;;;;9.95;3.85;;;;;;;15.50;61.07;100193.41;4951674;28;20134;-70
2023/07/28 01:50:00;;;;;;;10.30;4.25;;;;;;;15.50;61.20;100196.88;4953286;28;20792;-69
2023/07/28 01:52:26;;;;;;;13.30;4.85;;;;;;;15.50;61.06;100194.25;4968856;28;20039;-68
2023/07/28 01:54:51;;;;;;;12.82;4.60;;;;;;;15.53;61.05;100185.31;4950152;28;20282;-70
2023/07/28 01:57:17;;;;;;;13.00;4.57;;;;;;;15.57;61.16;100187.63;4960442;28;20039;-66
2023/07/28 01:59:43;;;;;;;9.68;4.32;;;;;;;15.55;61.09;100189.50;4947403;28;20053;-66
2023/07/28 02:02:09;;;;;;;12.10;5.18;;;;;;;15.51;61.65;100193.31;4977977;28;20034;-67
2023/07/28 02:04:35;;;;;;;11.82;4.28;;;;;;;15.56;61.02;100190.34;4975823;28;20052;-67
2023/07/28 02:07:00;;;;;;;15.80;4.32;;;;;;;15.46;61.29;100190.19;4970890;28;20034;-66
2023/07/28 02:09:26;;;;;;;12.15;4.57;;;;;;;15.42;61.52;100186.06;4948013;28;20039;-66
2023/07/28 02:11:52;;;;;;;10.32;5.47;;;;;;;15.37;61.34;100189.03;4948114;28;20665;-67
2023/07/28 02:14:18;;;;;;;10.57;5.38;;;;;;;15.46;61.05;100190.19;4957155;28;20054;-66
2023/07/28 02:16:44;;;;;;;11.32;4.93;;;;;;;15.45;61.18;100193.75;4952678;28;20409;-67
2023/07/28 02:19:10;;;;;;;10.95;5.05;;;;;;;15.44;61.19;100199.97;4971521;28;20508;-66
2023/07/28 02:21:35;;;;;;;9.88;4.95;;;;;;;15.47;61.17;100202.38;4969489;28;20034;-67
2023/07/28 02:24:01;;;;;;;12.32;4.78;;;;;;;15.48;61.16;100204.09;4969390;28;20452;-67
2023/07/28 02:26:27;;;;;;;13.50;5.35;;;;;;;15.51;61.01;100203.00;4970393;28;20030;-67
2023/07/28 02:28:52;;;;;;;14.93;6.03;;;;;;;15.50;61.10;100202.16;4969369;28;21299;-66
2023/07/28 02:31:18;;;;;;;18.67;5.97;;;;;;;15.48;61.36;100217.25;4969430;28;20030;-67
2023/07/28 02:33:43;;;;;;;14.82;5.10;;;;;;;15.51;61.06;100217.03;4969128;28;20092;-68
2023/07/28 02:36:09;;;;;;;12.18;4.93;;;;;;;15.54;61.27;100215.94;4988277;28;20064;-67
2023/07/28 02:38:34;;;;;;;10.52;4.43;;;;;;;15.52;61.13;100218.69;4952896;28;20042;-67
2023/07/28 02:41:00;;;;;;;12.45;5.00;;;;;;;15.43;61.22;100221.97;4969234;28;20084;-67
2023/07/28 02:43:25;;;;;;;11.77;5.53;;;;;;;15.34;61.74;100222.63;4971302;28;20030;-69
2023/07/28 02:45:55;;;;;;;11.70;4.25;;;;;;;15.05;62.49;100222.00;4970130;28;20516;-69
2023/07/28 02:48:23;;;;;;;8.57;4.00;;;;;;;14.99;62.30;100220.63;4953093;28;20034;-67
2023/07/28 02:50:50;;;;;;;10.80;3.70;;;;;;;15.09;62.25;100224.31;4970618;28;20547;-66
2023/07/28 02:53:18;;;;;;;7.43;3.63;;;;;;;15.05;62.22;100228.09;4971539;28;20056;-66
2023/07/28 02:55:45;;;;;;;10.15;2.58;;;;;;;14.87;62.70;100229.38;4970650;28;20039;-67
2023/07/28 02:58:11;;;;;;;4.45;2.10;;;;;;;14.69;63.51;100226.22;4965449;28;20624;-67
2023/07/28 03:00:38;;;;;;;6.43;2.63;;;;;;;14.87;62.66;100232.84;4982964;28;20049;-67
2023/07/28 03:03:05;;;;;;;5.38;2.42;;;;;;;14.83;62.77;100235.78;4956055;28;20521;-67
2023/07/28 03:05:32;;;;;;;6.95;1.85;;;;;;;15.00;62.53;100229.38;4955223;28;20070;-66
2023/07/28 03:08:14;;;;;;;4.90;2.00;;;;;;;15.06;62.22;100229.81;4958329;28;20623;-66
2023/07/28 03:10:40;;;;;;;2.97;1.67;;;;;;;14.91;62.62;100231.69;4968589;28;20114;-66
2023/07/28 03:13:05;;;;;;;5.88;2.47;;;;;;;15.14;61.85;100232.72;4971553;28;20093;-65
2023/07/28 03:15:31;;;;;;;4.07;1.70;;;;;;;15.17;61.82;100226.44;4969624;28;20046;-65
2023/07/28 03:17:56;;;;;;;3.63;1.77;;;;;;;15.11;61.85;100229.47;4969560;28;20030;-65
2023/07/28 03:20:22;;;;;;;3.78;1.75;;;;;;;15.12;62.00;100232.00;4968915;28;20452;-66
2023/07/28 03:22:48;;;;;;;3.58;1.85;;;;;;;15.11;61.59;100243.47;4969963;28;20042;-66
2023/07/28 03:25:13;;;;;;;4.50;1.85;;;;;;;15.18;61.84;100234.19;4973075;28;20121;-65
2023/07/28 03:27:39;;;;;;;2.90;1.27;;;;;;;15.23;61.64;100240.97;4932442;28;20644;-66
2023/07/28 03:30:06;;;;;;;2.60;1.25;;;;;;;15.24;61.67;100247.91;4948465;28;20496;-66
2023/07/28 03:32:32;;;;;;;3.88;1.80;;;;;;;15.25;61.54;100246.97;4950938;28;20034;-66
2023/07/28 03:34:58;;;;;;;4.18;1.52;;;;;;;15.24;61.55;100243.50;4960583;28;20046;-67
2023/07/28 03:37:24;;;;;;;4.32;1.25;;;;;;;15.27;61.34;100245.91;4961498;28;20045;-65
2023/07/28 03:39:50;;;;;;;3.85;1.80;;;;;;;15.29;61.46;100245.81;4958780;28;20042;-66
2023/07/28 03:42:16;;;;;;;2.92;1.23;;;;;;;15.33;61.50;100257.81;4948680;28;20038;-65
2023/07/28 03:44:41;;;;;;;2.17;0.80;;;;;;;15.36;61.26;100253.16;4950166;28;20070;-66
2023/07/28 03:47:07;;;;;;;3.15;0.95;;;;;;;15.37;61.31;100252.22;4949236;28;20085;-65
2023/07/28 03:49:33;;;;;;;3.17;1.55;;;;;;;15.38;61.05;100250.44;4949393;28;20049;-70
2023/07/28 03:51:59;;;;;;;3.00;1.25;;;;;;;15.40;61.13;100253.81;4969560;28;20109;-67
2023/07/28 03:54:25;;;;;;;3.85;1.42;;;;;;;15.40;60.98;100250.34;4964531;28;21100;-67
2023/07/28 03:56:51;;;;;;;2.80;1.25;;;;;;;15.39;61.06;100252.09;4983556;28;20069;-67
2023/07/28 03:59:19;;;;;;;3.53;1.25;;;;;;;15.36;61.28;100252.34;4967937;28;20042;-66
2023/07/28 04:01:44;;;;;;;2.65;1.42;;;;;;;15.23;61.58;100251.50;4968310;28;20038;-67
2023/07/28 04:04:10;;;;;;;2.65;1.05;;;;;;;15.33;61.27;100250.75;4971104;28;20056;-71
2023/07/28 04:06:44;;;;;;;3.10;1.33;;;;;;;15.34;61.29;100249.78;4965628;28;20778;-65
2023/07/28 04:09:10;;;;;;;3.10;1.20;;;;;;;15.34;61.30;100254.22;4970751;28;20564;-65
2023/07/28 04:11:37;;;;;;;3.65;1.23;;;;;;;15.32;61.53;100256.13;4967141;28;20416;-68
2023/07/28 04:14:02;;;;;;;2.63;1.05;;;;;;;15.35;61.24;100262.03;4967969;28;20042;-68
2023/07/28 04:16:28;;;;;;;6.00;1.35;;;;;;;15.40;61.34;100258.25;4981761;28;20701;-68
2023/07/28 04:18:53;;;;;;;5.65;1.23;;;;;;;15.48;61.05;100262.03;4953164;28;20683;-68
2023/07/28 04:21:19;;;;;;;2.30;0.73;;;;;;;15.54;61.26;100261.56;4980677;28;20037;-68
2023/07/28 04:23:44;;;;;;;1.77;0.98;;;;;;;15.52;60.82;100262.63;4965283;28;20576;-68
2023/07/28 04:26:10;;;;;;;2.30;1.13;;;;;;;15.49;61.25;100268.94;4969859;28;20189;-70
2023/07/28 04:28:37;;;;;;;2.63;0.80;;;;;;;15.51;61.23;100274.13;4964285;28;20504;-69
2023/07/28 04:31:03;;;;;;;2.30;1.17;;;;;;;15.46;61.03;100266.56;4951357;28;20031;-69
2023/07/28 04:34:03;;;;;;;3.70;0.70;;;;;;;15.47;61.03;100273.47;4965504;28;20572;-69
2023/07/28 04:36:45;;;;;;;1.83;0.93;;;;;;;15.49;60.91;100271.59;4968407;28;20121;-66
2023/07/28 04:39:14;;;;;;;2.53;1.35;;;;;;;15.52;61.15;100279.25;4968992;28;20046;-66
2023/07/28 04:41:39;;;;;;;2.67;1.20;;;;;;;15.54;61.07;100280.00;4980012;28;20401;-67
2023/07/28 04:44:05;;;;;;;1.65;0.70;;;;;;;15.59;60.71;100279.66;4966984;28;20050;-67
2023/07/28 04:46:35;;;;;;;2.75;0.80;;;;;;;15.53;61.04;100278.31;4963235;28;20045;-67
2023/07/28 04:49:04;;;;;;;4.72;0.95;;;;;;;15.55;61.19;100284.34;4981867;28;20098;-67
2023/07/28 04:51:48;;;;;;;2.88;1.25;;;;;;;15.44;61.12;100275.47;4968417;28;20069;-72
2023/07/28 04:54:32;;;;;;;2.13;0.80;;;;;;;15.62;61.13;100283.88;4970409;28;20145;-73
2023/07/28 04:56:57;;;;;;;1.77;0.80;;;;;;;15.66;60.96;100285.34;4966540;28;20148;-70
2023/07/28 04:59:29;;;;;;;2.25;0.75;;;;;;;15.63;60.85;100290.84;4952249;28;20049;-69
2023/07/28 05:01:55;;;;;;;4.90;1.10;;;;;;;15.55;60.79;100289.59;4970172;28;20034;-68
2023/07/28 05:04:20;;;;;;;3.05;1.20;;;;;;;15.29;61.34;100301.09;4948266;28;20035;-69
2023/07/28 05:06:47;;;;;;;2.15;0.80;;;;;;;15.47;61.19;100298.97;4948145;28;20030;-70
2023/07/28 05:09:12;;;;;;;6.57;1.75;;;;;;;15.42;61.38;100294.03;4966545;28;20796;-71
2023/07/28 05:11:38;;;;;;;5.95;1.65;;;;;;;15.53;61.40;100295.94;4964548;28;20645;-71
2023/07/28 05:14:06;;;;;;;2.80;1.00;;;;;;;15.54;61.07;100295.81;4947202;28;20046;-71
2023/07/28 05:16:32;;;;;;;3.95;1.50;;;;;;;15.59;61.00;100295.47;4968056;28;20142;-70
2023/07/28 05:19:27;;;;;;;3.03;1.30;;;;;;;15.65;61.10;100296.84;4955033;28;20042;-68
2023/07/28 05:22:13;;;;;;;4.50;1.60;;;;;;;15.60;60.82;100294.53;4942316;28;20165;-70
2023/07/28 05:24:49;;;;;;;2.00;0.98;;;;;;;15.66;61.08;100294.13;4972383;28;20050;-71
2023/07/28 05:27:16;;;;;;;2.38;1.20;;;;;;;15.69;60.87;100298.31;4979564;28;20060;-69
2023/07/28 05:29:44;;;;;;;2.83;1.13;;;;;;;15.77;60.80;100293.31;4967856;28;20053;-71
2023/07/28 05:32:10;;;;;;;2.08;1.15;;;;;;;15.85;60.91;100298.91;4967337;28;20408;-69
2023/07/28 05:34:56;;;;;;;2.42;1.13;;;;;;;15.89;60.86;100296.91;4965857;28;20080;-66
2023/07/28 05:37:24;;;;;;;1.77;1.17;;;;;;;15.88;61.10;100303.94;4966719;28;20096;-68
2023/07/28 05:39:49;;;;;;;5.05;1.15;;;;;;;15.96;60.68;100298.97;4964734;28;20150;-69
2023/07/28 05:42:17;;;;;;;4.13;1.40;;;;;;;15.91;60.49;100305.53;4965537;28;20038;-70
2023/07/28 05:44:45;;;;;;;4.68;1.63;;;;;;;15.96;60.72;100309.50;4952708;28;20034;-71
2023/07/28 05:47:11;;;;;;;2.75;1.15;;;;;;;15.93;60.78;100303.63;4963598;28;20185;-71
2023/07/28 05:49:36;;;;;;;2.92;0.88;;;;;;;15.94;60.97;100305.31;4966423;28;20047;-74
2023/07/28 05:52:02;;;;;;;1.88;1.13;;;;;;;16.11;60.77;100304.97;4955116;28;20634;-75
2023/07/28 05:54:28;;;;;;;2.47;1.00;;;;;;;16.23;60.51;100311.13;4980737;28;20057;-75
2023/07/28 05:56:53;;;;;;;1.90;0.77;;;;;;;16.13;60.17;100315.38;4952348;28;20034;-75
2023/07/28 05:59:19;;;;;;;2.97;0.90;;;;;;;16.14;60.19;100311.81;4967007;28;20050;-70
2023/07/28 06:01:45;;;;;;;2.08;0.88;;;;;;;16.16;60.14;100305.47;4963687;28;20045;-69
2023/07/28 06:04:13;;;;;;;3.47;0.80;;;;;;;15.97;60.64;100311.22;4965233;28;20753;-70
2023/07/28 06:06:44;;;;;;;3.83;0.85;;;;;;;16.04;60.43;100316.06;4947135;28;20555;-70
2023/07/28 06:09:12;;;;;;;1.35;0.65;;;;;;;16.25;60.21;100313.69;4948256;28;20422;-68
2023/07/28 06:11:38;;;;;;;0.98;0.45;;;;;;;16.52;59.99;100321.34;4955391;28;20081;-72
2023/07/28 06:14:04;;;;;;;1.83;0.85;;;;;;;16.74;59.73;100310.88;4966415;28;20061;-71
2023/07/28 06:16:33;;;;;;;2.15;0.43;;;;;;;16.92;59.32;100318.41;4965421;28;20640;-71
2023/07/28 06:18:59;;;;;;;3.53;0.68;;;;;;;16.86;58.28;100318.88;4965707;28;20046;-71
2023/07/28 06:21:24;;;;;;;1.00;0.50;;;;;;;16.80;59.05;100320.16;4977101;28;20616;-71
2023/07/28 06:23:50;;;;;;;2.47;0.50;;;;;;;16.93;58.84;100315.63;4966850;28;20117;-70
2023/07/28 06:26:17;;;;;;;1.45;0.40;;;;;;;16.93;58.66;100328.00;4966171;28;20707;-71
2023/07/28 06:28:43;;;;;;;1.23;0.50;;;;;;;16.89;58.55;100326.53;4951829;28;20031;-70
2023/07/28 06:31:10;;;;;;;3.92;0.55;;;;;;;17.04;58.91;100333.28;4971715;28;20408;-71
2023/07/28 06:33:36;;;;;;;2.00;0.75;;;;;;;17.29;58.25;100331.41;4964950;28;20076;-72
2023/07/28 06:36:03;;;;;;;3.33;0.82;;;;;;;17.42;57.37;100337.44;4972492;28;20034;-72
2023/07/28 06:38:29;;;;;;;1.73;0.63;;;;;;;17.45;57.74;100345.16;4967313;28;20037;-71
2023/07/28 06:40:55;;;;;;;3.25;0.63;;;;;;;17.52;57.47;100345.53;4970496;28;20050;-71
2023/07/28 06:43:21;;;;;;;1.98;0.40;;;;;;;17.39;56.48;100345.59;4966526;28;20113;-71
2023/07/28 06:45:53;;;;;;;1.45;0.32;;;;;;;17.39;57.14;100343.81;4949109;28;20046;-71
2023/07/28 06:48:19;;;;;;;1.13;0.28;;;;;;;17.23;57.57;100351.22;4939999;28;20030;-71
2023/07/28 06:50:45;;;;;;;1.67;0.40;;;;;;;17.12;57.25;100346.75;4951617;28;20038;-70
2023/07/28 06:53:11;;;;;;;1.10;0.40;;;;;;;17.24;57.34;100353.72;4953778;28;20409;-71
2023/07/28 06:55:38;;;;;;;1.17;0.52;;;;;;;17.17;57.12;100355.16;4948296;28;20034;-72
2023/07/28 06:58:06;;;;;;;1.88;0.47;;;;;;;17.20;56.64;100357.59;4935766;28;20754;-70
2023/07/28 07:00:32;;;;;;;1.00;0.20;;;;;;;17.29;57.35;100357.81;4960311;28;20837;-71
2023/07/28 07:02:57;;;;;;;2.45;0.95;;;;;;;17.35;56.93;100363.47;4947850;28;20397;-70
2023/07/28 07:05:24;;;;;;;1.10;0.50;;;;;;;17.35;57.19;100368.75;4945622;28;20102;-70
2023/07/28 07:07:49;;;;;;;1.45;0.65;;;;;;;17.33;56.99;100368.03;4946014;28;20101;-71
2023/07/28 07:10:15;;;;;;;3.92;0.50;;;;;;;17.24;56.86;100366.09;4960128;28;20201;-71
2023/07/28 07:12:41;;;;;;;2.55;0.80;;;;;;;17.10;57.43;100380.38;4952103;28;20034;-70
2023/07/28 07:15:07;;;;;;;1.13;0.30;;;;;;;17.22;57.57;100382.09;4983196;28;20117;-70
2023/07/28 07:17:33;;;;;;;3.15;0.60;;;;;;;16.96;58.08;100383.22;4965264;28;20195;-70
2023/07/28 07:19:59;;;;;;;1.88;0.38;;;;;;;16.92;57.78;100389.66;4942404;28;20038;-69
2023/07/28 07:22:25;;;;;;;1.42;0.40;;;;;;;16.85;57.98;100396.38;4947912;28;20042;-70
2023/07/28 07:24:51;;;;;;;4.07;0.52;;;;;;;16.91;58.01;100399.41;4948964;28;20069;-70
2023/07/28 07:27:17;;;;;;;4.13;0.93;;;;;;;16.78;58.89;100398.63;4963875;28;20731;-72
2023/07/28 07:29:42;;;;;;;1.77;0.90;;;;;;;16.90;59.01;100400.34;4948334;28;20055;-72
2023/07/28 07:32:09;;;;;;;1.90;0.60;;;;;;;16.85;58.20;100407.75;4950291;28;20035;-71
2023/07/28 07:34:37;;;;;;;1.98;0.38;;;;;;;16.82;58.40;100406.19;4945654;28;20101;-70
2023/07/28 07:37:03;;;;;;;2.72;1.52;;;;;;;16.80;58.53;100405.47;4950336;28;20034;-71
2023/07/28 07:39:28;;;;;;;1.83;0.40;;;;;;;16.87;58.63;100418.19;4944770;28;20141;-73
2023/07/28 07:41:54;;;;;;;1.10;0.40;;;;;;;16.75;58.89;100415.50;4946299;28;20042;-75
2023/07/28 07:44:20;;;;;;;1.00;0.40;;;;;;;16.73;59.07;100419.19;4941571;28;20069;-71
2023/07/28 07:46:46;;;;;;;0.93;0.30;;;;;;;17.00;58.47;100416.31;4965766;28;20037;-72
2023/07/28 07:49:11;;;;;;;0.90;0.47;;;;;;;16.57;59.49;100419.44;4971328;28;20077;-72
2023/07/28 07:51:37;;;;;;;1.10;0.43;;;;;;;16.80;58.41;100421.31;4963989;28;20736;-71
2023/07/28 07:54:03;;;;;;;1.25;0.30;;;;;;;17.20;58.38;100433.31;4970679;28;20365;-72
2023/07/28 07:56:28;;;;;;;1.88;0.28;;;;;;;17.41;57.72;100420.31;4966834;28;20301;-71
2023/07/28 07:58:54;;;;;;;3.33;0.55;;;;;;;17.33;57.76;100433.25;4968305;28;20073;-70
2023/07/28 08:01:19;;;;;;;1.15;0.40;;;;;;;17.22;57.85;100431.41;4965824;28;20056;-72
2023/07/28 08:03:45;;;;;;;1.00;0.45;;;;;;;17.45;57.31;100433.16;4963675;28;21101;-71
2023/07/28 08:06:12;;;;;;;0.65;0.30;;;;;;;17.58;56.40;100432.22;4952979;28;20623;-71
2023/07/28 08:08:38;;;;;;;1.10;0.35;;;;;;;17.77;57.02;100442.25;4944676;28;20134;-70
2023/07/28 08:11:04;;;;;;;1.58;0.30;;;;;;;17.67;57.09;100435.97;4951667;28;20079;-70
2023/07/28 08:13:30;;;;;;;2.08;0.50;;;;;;;17.80;56.81;100439.34;4942213;28;21066;-71
2023/07/28 08:15:58;;;;;;;2.00;0.50;;;;;;;18.14;56.43;100440.22;4962601;28;20042;-70
2023/07/28 08:18:23;;;;;;;1.65;0.57;;;;;;;18.30;55.89;100444.31;4965133;28;20430;-70
2023/07/28 08:20:49;;;;;;;3.67;0.60;;;;;;;18.12;56.35;100452.72;4964930;28;20166;-70
2023/07/28 08:23:15;;;;;;;2.08;0.63;;;;;;;17.98;56.47;100459.09;4967372;28;20038;-70
2023/07/28 08:25:41;;;;;;;2.17;0.50;;;;;;;18.01;56.45;100464.13;4948473;28;20410;-70
2023/07/28 08:28:07;;;;;;;3.58;0.60;;;;;;;17.77;56.65;100458.09;4964266;28;20756;-70
2023/07/28 08:30:33;;;;;;;2.42;0.50;;;;;;;17.78;56.73;100473.84;4959068;28;20038;-71
2023/07/28 08:32:59;;;;;;;1.08;0.40;;;;;;;17.76;57.16;100472.25;4965713;28;20374;-71
2023/07/28 08:35:24;;;;;;;1.33;0.40;;;;;;;17.89;57.43;100467.72;4948842;28;20551;-70
2023/07/28 08:37:50;;;;;;;1.55;0.47;;;;;;;18.57;56.13;100468.56;4946734;28;20039;-70
2023/07/28 08:40:28;;;;;;;1.67;0.63;;;;;;;20.19;53.07;100473.66;4964201;28;20600;-71
2023/07/28 08:42:55;;;;;;;3.47;1.45;;;;;;;19.60;52.23;100478.69;4964465;28;20041;-71
2023/07/28 08:45:32;;;;;;;3.97;0.73;;;;;;;19.22;51.98;100484.50;4915274;28;20050;-71
2023/07/28 08:48:08;;;;;;;0.80;0.25;;;;;;;19.21;52.91;100485.47;4944894;28;20023;-70
2023/07/28 08:50:41;;;;;;;1.73;0.50;;;;;;;18.94;53.98;100485.94;4919997;28;20051;-71
2023/07/28 08:53:14;;;;;;;1.20;0.60;;;;;;;18.12;55.65;100484.44;4964166;28;20568;-71
2023/07/28 08:55:48;;;;;;;1.25;0.30;;;;;;;18.01;55.90;100485.28;4931914;28;20646;-71
2023/07/28 08:58:21;;;;;;;1.50;0.40;;;;;;;18.05;55.84;100492.03;4949064;28;20026;-72
2023/07/28 09:00:51;;;;;;;1.23;0.30;;;;;;;18.12;55.51;100491.50;4964896;28;20038;-74
2023/07/28 09:03:17;;;;;;;1.10;0.20;;;;;;;18.08;55.47;100495.38;4966354;28;20022;-69
2023/07/28 09:05:45;;;;;;;1.65;0.30;;;;;;;17.97;56.00;100491.75;4964861;28;20050;-69
2023/07/28 09:08:12;;;;;;;1.35;0.40;;;;;;;18.14;55.86;100508.09;4965495;28;20038;-70
2023/07/28 09:10:42;;;;;;;2.63;0.40;;;;;;;17.90;56.21;100501.13;4962043;28;20056;-70
2023/07/28 09:13:12;;;;;;;0.90;0.30;;;;;;;17.89;56.55;100510.00;4950339;28;20045;-70
2023/07/28 09:15:38;;;;;;;1.45;0.50;;;;;;;18.22;56.00;100511.88;4962061;28;20529;-70
2023/07/28 09:18:07;;;;;;;0.68;0.20;;;;;;;18.42;54.67;100518.25;4964943;28;20495;-70
2023/07/28 09:20:35;;;;;;;1.20;0.30;;;;;;;18.69;54.58;100520.50;4944912;28;20062;-71
2023/07/28 09:23:01;;;;;;;1.48;0.70;;;;;;;18.89;54.08;100515.44;4947300;28;20042;-70
2023/07/28 09:25:29;;;;;;;1.48;0.45;;;;;;;18.86;54.25;100521.78;4949443;28;20070;-69
2023/07/28 09:27:55;;;;;;;1.10;0.38;;;;;;;18.93;53.73;100522.19;4945526;28;20045;-69
2023/07/28 09:30:23;;;;;;;0.95;0.30;;;;;;;19.35;53.91;100516.97;4959161;28;20038;-70
2023/07/28 09:32:54;;;;;;;7.80;2.90;;;;;;;19.28;52.81;100515.81;4963249;28;20785;-70
2023/07/28 09:35:21;;;;;;;2.80;1.88;;;;;;;19.68;53.14;100518.66;4950491;28;20051;-69
2023/07/28 09:37:49;;;;;;;3.50;2.00;;;;;;;19.89;52.25;100531.03;4944861;28;20169;-69
2023/07/28 09:40:20;;;;;;;1.70;0.98;;;;;;;20.11;52.19;100536.19;4958990;28;20057;-70
2023/07/28 09:42:49;;;;;;;10.57;5.72;;;;;;;19.87;51.47;100532.97;4961059;28;20030;-69
2023/07/28 09:45:17;;;;;;;20.75;10.25;;;;;;;19.55;51.38;100527.69;4964205;28;20042;-69
2023/07/28 09:47:47;;;;;;;3.75;2.53;;;;;;;19.71;51.47;100528.97;4961791;28;20065;-69
2023/07/28 09:50:16;;;;;;;1.73;0.80;;;;;;;19.23;52.79;100532.09;4967945;28;20042;-69
2023/07/28 09:52:44;;;;;;;0.98;0.55;;;;;;;19.24;52.94;100539.06;4961868;28;20042;-69
2023/07/28 09:55:11;;;;;;;4.25;1.08;;;;;;;19.49;52.74;100537.03;4966269;28;20054;-69
2023/07/28 09:57:44;;;;;;;1.52;0.70;;;;;;;19.50;51.69;100541.34;4955623;28;20026;-69
2023/07/28 10:00:12;;;;;;;1.48;0.40;;;;;;;19.84;51.21;100543.88;4963076;28;20054;-69
2023/07/28 10:02:39;;;;;;;1.25;0.40;;;;;;;19.96;50.46;100542.81;4963424;28;20034;-69
2023/07/28 10:05:06;;;;;;;2.97;0.60;;;;;;;19.85;50.51;100542.88;4953708;28;20050;-70
2023/07/28 10:07:35;;;;;;;2.47;0.20;;;;;;;20.65;47.90;100543.97;4968409;28;20088;-70
2023/07/28 10:10:07;;;;;;;2.35;0.40;;;;;;;20.88;47.51;100540.13;4971225;28;20046;-69
2023/07/28 10:12:49;;;;;;;0.70;0.40;;;;;;;20.83;47.09;100537.03;4966680;28;20034;-69
2023/07/28 10:15:20;;;;;;;0.60;0.20;;;;;;;20.31;48.50;100552.25;4964024;28;20058;-70
2023/07/28 10:17:49;;;;;;;0.63;0.32;;;;;;;19.96;49.03;100552.59;4965786;28;20466;-69
2023/07/28 10:20:34;;;;;;;2.28;0.57;;;;;;;19.85;49.83;100553.50;4982586;28;20048;-69
2023/07/28 10:23:07;;;;;;;2.55;0.40;;;;;;;19.74;49.85;100548.25;4968924;28;20032;-68
2023/07/28 10:25:35;;;;;;;1.92;0.45;;;;;;;20.27;49.66;100551.66;4967165;28;20545;-69
2023/07/28 10:28:02;;;;;;;1.05;0.40;;;;;;;19.45;49.95;100554.13;4966350;28;20042;-68
2023/07/28 10:30:28;;;;;;;1.98;0.28;;;;;;;19.77;49.71;100558.59;4969431;28;20042;-70
2023/07/28 10:32:55;;;;;;;0.85;0.30;;;;;;;19.61;49.84;100561.69;4967213;28;20405;-68
2023/07/28 10:35:26;;;;;;;1.70;0.57;;;;;;;19.12;50.01;100560.41;4951858;28;20391;-69
2023/07/28 10:37:55;;;;;;;1.08;0.60;;;;;;;18.86;51.21;100556.22;4967235;28;21862;-68
2023/07/28 10:40:33;;;;;;;0.93;0.40;;;;;;;18.54;51.32;100556.16;4969040;28;20042;-68
2023/07/28 10:42:59;;;;;;;2.35;0.40;;;;;;;18.45;52.23;100564.78;4967516;28;20089;-68
2023/07/28 10:45:27;;;;;;;2.15;0.68;;;;;;;18.55;52.64;100565.75;4969210;28;20034;-69
2023/07/28 10:47:56;;;;;;;2.83;0.50;;;;;;;18.48;52.43;100567.22;4968295;28;20391;-68
2023/07/28 10:50:28;;;;;;;1.40;0.93;;;;;;;18.06;53.04;100572.19;4965447;28;20050;-69
2023/07/28 10:52:53;;;;;;;1.50;0.82;;;;;;;17.82;53.15;100574.88;4966363;28;20042;-69
2023/07/28 10:55:21;;;;;;;1.08;0.65;;;;;;;17.97;52.93;100581.66;4967616;28;20046;-69
2023/07/28 10:57:48;;;;;;;2.00;1.10;;;;;;;18.25;52.51;100579.56;4967339;28;20113;-69
2023/07/28 11:00:15;;;;;;;2.55;1.10;;;;;;;18.45;52.03;100570.94;4972005;28;20058;-69
2023/07/28 11:02:46;;;;;;;2.38;0.73;;;;;;;18.80;51.79;100575.22;4960390;28;20997;-69
2023/07/28 11:05:32;;;;;;;1.80;0.90;;;;;;;19.55;51.12;100576.31;4969928;28;20463;-69
2023/07/28 11:08:00;;;;;;;1.17;0.73;;;;;;;19.68;49.32;100581.41;4966326;28;20969;-69
2023/07/28 11:10:28;;;;;;;1.38;0.60;;;;;;;20.01;48.41;100584.84;4965549;28;20092;-70
2023/07/28 11:12:53;;;;;;;1.05;0.65;;;;;;;20.05;47.45;100579.16;4964340;28;20049;-68
2023/07/28 11:15:19;;;;;;;1.42;0.80;;;;;;;20.58;48.56;100591.47;4953408;28;20469;-68
2023/07/28 11:17:50;;;;;;;2.50;0.50;;;;;;;20.41;47.55;100595.56;4946622;28;20042;-69
2023/07/28 11:20:28;;;;;;;1.70;0.85;;;;;;;20.86;47.68;100595.22;4948598;28;20046;-69
2023/07/28 11:22:59;;;;;;;2.90;0.80;;;;;;;20.51;46.55;100588.50;4944732;28;20058;-69
2023/07/28 11:25:27;;;;;;;1.40;0.63;;;;;;;20.49;48.42;100597.59;4958590;28;20064;-68
2023/07/28 11:27:52;;;;;;;2.13;0.73;;;;;;;20.49;48.08;100597.59;4981470;28;20057;-69